createdAt,value
2018-12-14T00:00:16.155Z,1003.44
2018-12-14T00:00:56.890Z,1003.38
2018-12-14T00:01:37.653Z,1003.4
2018-12-14T00:02:18.449Z,1003.35
2018-12-14T00:02:59.200Z,1003.34
2018-12-14T00:03:39.936Z,1003.36
2018-12-14T00:04:20.660Z,1003.38
2018-12-14T00:05:01.409Z,1003.39
2018-12-14T00:05:42.162Z,1003.37
2018-12-14T00:06:22.968Z,1003.45
2018-12-14T00:07:03.744Z,1003.46
2018-12-14T00:07:44.568Z,1003.47
2018-12-14T00:08:25.261Z,1003.42
2018-12-14T00:09:06.017Z,1003.34
2018-12-14T00:09:46.870Z,1003.36
2018-12-14T00:10:27.587Z,1003.41
2018-12-14T00:11:08.345Z,1003.34
2018-12-14T00:11:49.085Z,1003.33
2018-12-14T00:12:29.861Z,1003.29
2018-12-14T00:13:10.649Z,1003.51
2018-12-14T00:13:51.507Z,1003.38
2018-12-14T00:14:32.237Z,1003.48
2018-12-14T00:15:13.069Z,1003.47
2018-12-14T00:15:53.907Z,1003.48
2018-12-14T00:16:34.698Z,1003.48
2018-12-14T00:17:15.430Z,1003.38
2018-12-14T00:17:56.187Z,1003.4
2018-12-14T00:18:37.035Z,1003.5
2018-12-14T00:19:17.712Z,1003.47
2018-12-14T00:19:58.445Z,1003.52
2018-12-14T00:20:39.128Z,1003.62
2018-12-14T00:21:19.895Z,1003.57
2018-12-14T00:22:00.713Z,1003.6
2018-12-14T00:22:41.484Z,1003.66
2018-12-14T00:23:22.226Z,1003.68
2018-12-14T00:24:02.945Z,1003.56
2018-12-14T00:24:43.675Z,1003.69
2018-12-14T00:25:24.415Z,1003.66
2018-12-14T00:26:05.269Z,1003.75
2018-12-14T00:26:45.956Z,1003.72
2018-12-14T00:27:26.672Z,1003.74
2018-12-14T00:28:07.443Z,1003.66
2018-12-14T00:28:48.280Z,1003.74
2018-12-14T00:29:29.095Z,1003.82
2018-12-14T00:30:09.769Z,1003.8
2018-12-14T00:30:50.443Z,1003.8
2018-12-14T00:31:31.163Z,1003.71
2018-12-14T00:32:11.922Z,1003.78
2018-12-14T00:32:52.751Z,1003.87
2018-12-14T00:33:33.586Z,1003.74
2018-12-14T00:34:14.322Z,1003.85
2018-12-14T00:34:55.072Z,1003.8
2018-12-14T00:35:35.848Z,1003.79
2018-12-14T00:36:16.606Z,1003.78
2018-12-14T00:36:57.335Z,1003.87
2018-12-14T00:37:38.108Z,1003.83
2018-12-14T00:38:18.860Z,1003.79
2018-12-14T00:38:59.724Z,1003.89
2018-12-14T00:39:40.529Z,1004
2018-12-14T00:40:21.349Z,1003.92
2018-12-14T00:41:02.089Z,1003.95
2018-12-14T00:41:42.892Z,1003.97
2018-12-14T00:42:23.627Z,1003.98
2018-12-14T00:43:04.457Z,1003.95
2018-12-14T00:43:45.263Z,1003.92
2018-12-14T00:44:26.041Z,1003.99
2018-12-14T00:45:06.815Z,1004.05
2018-12-14T00:45:47.656Z,1003.91
2018-12-14T00:46:28.501Z,1003.82
2018-12-14T00:47:09.276Z,1003.92
2018-12-14T00:47:49.978Z,1003.97
2018-12-14T00:48:30.762Z,1003.99
2018-12-14T00:49:11.579Z,1003.79
2018-12-14T00:49:52.349Z,1003.93
2018-12-14T00:50:33.059Z,1003.92
2018-12-14T00:51:13.784Z,1004
2018-12-14T00:51:54.550Z,1003.93
2018-12-14T00:52:35.297Z,1003.95
2018-12-14T00:53:16.041Z,1003.96
2018-12-14T00:53:56.895Z,1004.02
2018-12-14T00:54:37.700Z,1004.01
2018-12-14T00:55:18.546Z,1004.03
2018-12-14T00:55:59.283Z,1003.97
2018-12-14T00:56:40.070Z,1003.93
2018-12-14T00:57:20.781Z,1004.01
2018-12-14T00:58:01.537Z,1004.06
2018-12-14T00:58:42.328Z,1004.1
2018-12-14T00:59:23.141Z,1004.19
2018-12-14T01:00:03.897Z,1004.07
2018-12-14T01:00:44.679Z,1004.06
2018-12-14T01:01:25.452Z,1004.04
2018-12-14T01:02:06.289Z,1004.06
2018-12-14T01:02:47.062Z,1004.12
2018-12-14T01:03:27.801Z,1004.12
2018-12-14T01:04:08.553Z,1004
2018-12-14T01:04:49.350Z,1004.1
2018-12-14T01:05:30.180Z,1004.05
2018-12-14T01:06:10.892Z,1004.05
2018-12-14T01:06:51.672Z,1004.14
2018-12-14T01:07:32.472Z,1004.15
2018-12-14T01:08:13.326Z,1004.15
2018-12-14T01:08:54.036Z,1004.15
2018-12-14T01:09:34.794Z,1004.16
2018-12-14T01:10:15.584Z,1004.19
2018-12-14T01:10:56.358Z,1004.11
2018-12-14T01:11:37.075Z,1004.16
2018-12-14T01:12:18.407Z,1004.04
2018-12-14T01:12:59.033Z,1004.21
2018-12-14T01:13:39.830Z,1004.14
2018-12-14T01:14:20.581Z,1004.08
2018-12-14T01:15:01.377Z,1004.15
2018-12-14T01:15:42.107Z,1004.27
2018-12-14T01:16:22.806Z,1004.23
2018-12-14T01:17:03.512Z,1004.22
2018-12-14T01:17:44.267Z,1004.18
2018-12-14T01:18:25.065Z,1004.27
2018-12-14T01:19:05.757Z,1004.23
2018-12-14T01:19:46.555Z,1004.21
2018-12-14T01:20:27.399Z,1004.22
2018-12-14T01:21:08.238Z,1004.24
2018-12-14T01:21:48.995Z,1004.37
2018-12-14T01:22:29.708Z,1004.32
2018-12-14T01:23:10.479Z,1004.37
2018-12-14T01:23:51.268Z,1004.19
2018-12-14T01:24:32.046Z,1004.22
2018-12-14T01:25:12.763Z,1004.33
2018-12-14T01:25:53.497Z,1004.23
2018-12-14T01:26:34.302Z,1004.28
2018-12-14T01:27:15.035Z,1004.23
2018-12-14T01:27:55.803Z,1004.31
2018-12-14T01:28:36.580Z,1004.26
2018-12-14T01:29:17.397Z,1004.32
2018-12-14T01:29:58.206Z,1004.35
2018-12-14T01:30:38.927Z,1004.4
2018-12-14T01:31:19.688Z,1004.36
2018-12-14T01:32:00.466Z,1004.42
2018-12-14T01:32:41.230Z,1004.29
2018-12-14T01:33:22.037Z,1004.38
2018-12-14T01:34:02.846Z,1004.33
2018-12-14T01:34:43.604Z,1004.45
2018-12-14T01:35:24.346Z,1004.41
2018-12-14T01:36:05.148Z,1004.45
2018-12-14T01:36:45.982Z,1004.49
2018-12-14T01:37:26.707Z,1004.39
2018-12-14T01:38:07.447Z,1004.55
2018-12-14T01:38:48.227Z,1004.47
2018-12-14T01:39:29.010Z,1004.37
2018-12-14T01:40:09.941Z,1004.56
2018-12-14T01:40:50.987Z,1004.42
2018-12-14T01:43:06.756Z,1004.53
2018-12-14T01:43:48.188Z,1004.68
2018-12-14T01:44:28.947Z,1004.58
2018-12-14T01:45:09.857Z,1004.59
2018-12-14T01:45:50.696Z,1004.7
2018-12-14T01:46:31.455Z,1004.55
2018-12-14T01:47:12.143Z,1004.64
2018-12-14T01:47:52.858Z,1004.59
2018-12-14T01:48:33.597Z,1004.69
2018-12-14T01:49:14.430Z,1004.74
2018-12-14T01:49:55.199Z,1004.73
2018-12-14T01:50:36.044Z,1004.71
2018-12-14T01:51:16.790Z,1004.8
2018-12-14T01:51:57.534Z,1004.73
2018-12-14T01:52:38.255Z,1004.74
2018-12-14T01:53:19.056Z,1004.84
2018-12-14T01:53:59.904Z,1004.79
2018-12-14T01:54:40.674Z,1004.82
2018-12-14T01:55:21.532Z,1004.8
2018-12-14T01:56:02.297Z,1004.71
2018-12-14T01:56:43.123Z,1004.75
2018-12-14T01:57:23.841Z,1004.82
2018-12-14T01:58:04.595Z,1004.82
2018-12-14T01:58:45.436Z,1004.8
2018-12-14T01:59:26.148Z,1004.77
2018-12-14T02:00:06.892Z,1004.81
2018-12-14T02:00:47.597Z,1004.78
2018-12-14T02:01:28.362Z,1004.56
2018-12-14T02:02:09.189Z,1004.83
2018-12-14T02:02:49.906Z,1004.63
2018-12-14T02:03:30.675Z,1004.86
2018-12-14T02:04:11.480Z,1004.74
2018-12-14T02:04:52.248Z,1004.84
2018-12-14T02:05:33.028Z,1004.78
2018-12-14T02:06:13.763Z,1004.73
2018-12-14T02:06:54.458Z,1004.75
2018-12-14T02:07:35.195Z,1004.81
2018-12-14T02:08:15.940Z,1004.88
2018-12-14T02:08:56.745Z,1004.78
2018-12-14T02:09:37.558Z,1004.7
2018-12-14T02:10:18.333Z,1004.93
2018-12-14T02:10:59.083Z,1004.93
2018-12-14T02:11:39.891Z,1004.87
2018-12-14T02:12:20.659Z,1004.8
2018-12-14T02:13:01.360Z,1004.95
2018-12-14T02:13:42.121Z,1004.88
2018-12-14T02:14:22.832Z,1005.03
2018-12-14T02:15:03.610Z,1004.94
2018-12-14T02:15:44.372Z,1005.04
2018-12-14T02:16:25.232Z,1005.03
2018-12-14T02:17:05.967Z,1005.01
2018-12-14T02:17:46.669Z,1004.9
2018-12-14T02:18:27.371Z,1005.05
2018-12-14T02:19:08.159Z,1005.04
2018-12-14T02:19:48.990Z,1005
2018-12-14T02:20:29.741Z,1005.07
2018-12-14T02:21:10.504Z,1005.21
2018-12-14T02:21:51.309Z,1005.12
2018-12-14T02:22:32.117Z,1005.18
2018-12-14T02:23:12.865Z,1005.15
2018-12-14T02:23:53.599Z,1005.27
2018-12-14T02:24:34.304Z,1005.24
2018-12-14T02:25:15.074Z,1005.27
2018-12-14T02:25:55.853Z,1005.36
2018-12-14T02:26:36.610Z,1005.32
2018-12-14T02:27:17.432Z,1005.28
2018-12-14T02:27:58.141Z,1005.31
2018-12-14T02:28:38.868Z,1005.34
2018-12-14T02:29:19.722Z,1005.35
2018-12-14T02:30:00.493Z,1005.42
2018-12-14T02:30:41.216Z,1005.46
2018-12-14T02:31:21.941Z,1005.49
2018-12-14T02:32:02.715Z,1005.58
2018-12-14T02:32:43.502Z,1005.45
2018-12-14T02:33:24.210Z,1005.46
2018-12-14T02:34:05.029Z,1005.53
2018-12-14T02:34:45.829Z,1005.59
2018-12-14T02:35:26.793Z,1005.55
2018-12-14T02:36:07.544Z,1005.54
2018-12-14T02:36:48.286Z,1005.6
2018-12-14T02:37:29.054Z,1005.62
2018-12-14T02:38:09.893Z,1005.61
2018-12-14T02:38:50.637Z,1005.59
2018-12-14T02:39:31.346Z,1005.63
2018-12-14T02:40:12.061Z,1005.56
2018-12-14T02:40:52.799Z,1005.59
2018-12-14T02:41:33.626Z,1005.62
2018-12-14T02:42:19.203Z,1005.6
2018-12-14T02:42:55.296Z,1005.61
2018-12-14T02:43:36.028Z,1005.6
2018-12-14T02:44:16.766Z,1005.67
2018-12-14T02:44:57.519Z,1005.61
2018-12-14T02:45:38.348Z,1005.65
2018-12-14T02:46:19.042Z,1005.64
2018-12-14T02:46:59.773Z,1005.62
2018-12-14T02:47:40.632Z,1005.66
2018-12-14T02:48:21.409Z,1005.71
2018-12-14T02:49:02.200Z,1005.7
2018-12-14T02:49:42.927Z,1005.67
2018-12-14T02:50:23.716Z,1005.62
2018-12-14T02:51:04.516Z,1005.53
2018-12-14T02:51:45.277Z,1005.63
2018-12-14T02:52:26.019Z,1005.64
2018-12-14T02:53:06.764Z,1005.68
2018-12-14T02:53:47.556Z,1005.73
2018-12-14T02:54:28.387Z,1005.69
2018-12-14T02:55:09.066Z,1005.67
2018-12-14T02:55:49.799Z,1005.65
2018-12-14T02:56:30.638Z,1005.7
2018-12-14T02:57:11.432Z,1005.74
2018-12-14T02:57:52.236Z,1005.75
2018-12-14T02:58:32.993Z,1005.7
2018-12-14T02:59:13.721Z,1005.68
2018-12-14T02:59:54.448Z,1005.71
2018-12-14T03:00:35.216Z,1005.62
2018-12-14T03:01:15.996Z,1005.72
2018-12-14T03:01:57.218Z,1005.7
2018-12-14T03:02:37.979Z,1005.7
2018-12-14T03:03:18.747Z,1005.74
2018-12-14T03:03:59.501Z,1005.76
2018-12-14T03:04:40.300Z,1005.76
2018-12-14T03:05:21.048Z,1005.76
2018-12-14T03:06:01.773Z,1005.79
2018-12-14T03:06:42.510Z,1005.74
2018-12-14T03:07:23.395Z,1005.77
2018-12-14T03:08:04.125Z,1005.76
2018-12-14T03:08:44.839Z,1005.69
2018-12-14T03:09:25.669Z,1005.86
2018-12-14T03:10:06.477Z,1005.82
2018-12-14T03:10:47.310Z,1005.85
2018-12-14T03:11:28.010Z,1005.81
2018-12-14T03:12:08.795Z,1005.89
2018-12-14T03:12:49.632Z,1005.77
2018-12-14T03:13:30.343Z,1005.79
2018-12-14T03:14:11.026Z,1005.9
2018-12-14T03:14:51.731Z,1005.81
2018-12-14T03:15:32.475Z,1005.85
2018-12-14T03:16:13.263Z,1005.86
2018-12-14T03:16:54.068Z,1005.8
2018-12-14T03:17:34.884Z,1005.79
2018-12-14T03:18:15.642Z,1005.77
2018-12-14T03:18:56.312Z,1005.88
2018-12-14T03:19:37.028Z,1005.82
2018-12-14T03:20:17.839Z,1005.84
2018-12-14T03:20:58.616Z,1005.87
2018-12-14T03:21:39.303Z,1005.83
2018-12-14T03:22:20.070Z,1005.81
2018-12-14T03:23:00.877Z,1005.84
2018-12-14T03:23:41.680Z,1005.91
2018-12-14T03:24:22.426Z,1005.95
2018-12-14T03:25:03.147Z,1005.93
2018-12-14T03:25:43.847Z,1005.89
2018-12-14T03:26:24.602Z,1005.85
2018-12-14T03:27:05.416Z,1005.93
2018-12-14T03:27:46.156Z,1006.01
2018-12-14T03:28:26.965Z,1005.9
2018-12-14T03:29:07.680Z,1005.98
2018-12-14T03:29:48.446Z,1005.91
2018-12-14T03:30:29.280Z,1005.96
2018-12-14T03:31:10.040Z,1006.02
2018-12-14T03:31:50.770Z,1006
2018-12-14T03:32:31.554Z,1006.05
2018-12-14T03:33:12.344Z,1006.04
2018-12-14T03:33:53.116Z,1006.11
2018-12-14T03:34:33.955Z,1006.06
2018-12-14T03:35:14.697Z,1006.03
2018-12-14T03:35:55.446Z,1006.14
2018-12-14T03:36:36.220Z,1006.07
2018-12-14T03:37:16.974Z,1006.14
2018-12-14T03:37:57.880Z,1006.07
2018-12-14T03:38:38.590Z,1006.19
2018-12-14T03:39:19.340Z,1006.17
2018-12-14T03:40:00.130Z,1006.13
2018-12-14T03:40:40.928Z,1006.22
2018-12-14T03:41:21.731Z,1006.12
2018-12-14T03:42:02.471Z,1006.17
2018-12-14T03:42:43.233Z,1006.12
2018-12-14T03:43:24.017Z,1006.17
2018-12-14T03:44:04.704Z,1006.16
2018-12-14T03:44:45.407Z,1006.08
2018-12-14T03:45:26.170Z,1006.07
2018-12-14T03:46:06.930Z,1006.13
2018-12-14T03:46:47.723Z,1006.03
2018-12-14T03:47:28.413Z,1006.18
2018-12-14T03:48:09.188Z,1006.07
2018-12-14T03:48:50.012Z,1006.13
2018-12-14T03:49:30.785Z,1006.15
2018-12-14T03:50:11.605Z,1006.21
2018-12-14T03:50:52.323Z,1006.2
2018-12-14T03:51:33.069Z,1006.2
2018-12-14T03:52:13.791Z,1006.18
2018-12-14T03:52:54.575Z,1006.2
2018-12-14T03:53:35.448Z,1006.23
2018-12-14T03:54:16.247Z,1006.12
2018-12-14T03:54:56.951Z,1006.22
2018-12-14T03:55:37.731Z,1006.24
2018-12-14T03:56:18.506Z,1006.28
2018-12-14T03:56:59.251Z,1006.28
2018-12-14T03:57:40.005Z,1006.14
2018-12-14T03:58:20.722Z,1006.24
2018-12-14T03:59:01.519Z,1006.28
2018-12-14T03:59:42.299Z,1006.24
2018-12-14T04:00:23.068Z,1006.29
2018-12-14T04:01:03.815Z,1006.36
2018-12-14T04:01:44.536Z,1006.32
2018-12-14T04:02:25.271Z,1006.27
2018-12-14T04:03:06.051Z,1006.33
2018-12-14T04:03:46.874Z,1006.29
2018-12-14T04:04:27.604Z,1006.25
2018-12-14T04:05:08.340Z,1006.24
2018-12-14T04:05:49.144Z,1006.25
2018-12-14T04:06:29.982Z,1006.29
2018-12-14T04:07:10.761Z,1006.35
2018-12-14T04:07:51.459Z,1006.27
2018-12-14T04:08:32.149Z,1006.3
2018-12-14T04:09:12.889Z,1006.29
2018-12-14T04:09:53.655Z,1006.26
2018-12-14T04:10:34.449Z,1006.13
2018-12-14T04:11:15.304Z,1006.28
2018-12-14T04:11:56.093Z,1006.31
2018-12-14T04:12:41.458Z,1006.22
2018-12-14T04:13:17.562Z,1006.33
2018-12-14T04:13:58.350Z,1006.37
2018-12-14T04:14:39.068Z,1006.31
2018-12-14T04:15:19.796Z,1006.36
2018-12-14T04:16:00.563Z,1006.4
2018-12-14T04:16:41.344Z,1006.31
2018-12-14T04:17:22.119Z,1006.33
2018-12-14T04:18:02.926Z,1006.37
2018-12-14T04:18:43.655Z,1006.32
2018-12-14T04:19:24.562Z,1006.37
2018-12-14T04:20:05.441Z,1006.37
2018-12-14T04:20:46.232Z,1006.43
2018-12-14T04:21:26.979Z,1006.37
2018-12-14T04:22:07.815Z,1006.37
2018-12-14T04:22:48.573Z,1006.45
2018-12-14T04:23:29.352Z,1006.37
2018-12-14T04:24:10.064Z,1006.4
2018-12-14T04:24:50.846Z,1006.46
2018-12-14T04:25:31.657Z,1006.38
2018-12-14T04:26:12.475Z,1006.43
2018-12-14T04:26:53.457Z,1006.43
2018-12-14T04:27:34.193Z,1006.44
2018-12-14T04:28:14.973Z,1006.54
2018-12-14T04:28:55.707Z,1006.52
2018-12-14T04:29:36.470Z,1006.37
2018-12-14T04:30:17.305Z,1006.53
2018-12-14T04:30:58.044Z,1006.48
2018-12-14T04:31:38.848Z,1006.39
2018-12-14T04:32:19.683Z,1006.37
2018-12-14T04:33:00.486Z,1006.28
2018-12-14T04:33:41.221Z,1006.4
2018-12-14T04:34:21.988Z,1006.36
2018-12-14T04:35:03.544Z,1006.39
2018-12-14T04:35:44.291Z,1006.43
2018-12-14T04:36:25.116Z,1006.38
2018-12-14T04:37:05.870Z,1006.35
2018-12-14T04:37:46.718Z,1006.24
2018-12-14T04:38:27.405Z,1006.34
2018-12-14T04:39:08.176Z,1006.31
2018-12-14T04:39:48.983Z,1006.42
2018-12-14T04:40:29.714Z,1006.3
2018-12-14T04:41:10.509Z,1006.34
2018-12-14T04:41:51.230Z,1006.33
2018-12-14T04:42:32.018Z,1006.32
2018-12-14T04:43:12.817Z,1006.26
2018-12-14T04:43:53.679Z,1006.38
2018-12-14T04:44:34.394Z,1006.37
2018-12-14T04:45:15.103Z,1006.31
2018-12-14T04:45:55.810Z,1006.32
2018-12-14T04:46:36.519Z,1006.35
2018-12-14T04:47:17.378Z,1006.23
2018-12-14T04:47:58.116Z,1006.33
2018-12-14T04:48:38.872Z,1006.34
2018-12-14T04:49:19.679Z,1006.31
2018-12-14T04:50:00.443Z,1006.34
2018-12-14T04:50:41.224Z,1006.26
2018-12-14T04:51:21.963Z,1006.31
2018-12-14T04:52:02.732Z,1006.34
2018-12-14T04:52:43.536Z,1006.28
2018-12-14T04:53:24.294Z,1006.27
2018-12-14T04:54:05.005Z,1006.29
2018-12-14T04:54:45.787Z,1006.24
2018-12-14T04:55:26.545Z,1006.22
2018-12-14T04:56:07.378Z,1006.32
2018-12-14T04:56:48.202Z,1006.29
2018-12-14T04:57:28.921Z,1006.24
2018-12-14T04:58:09.754Z,1006.28
2018-12-14T04:58:50.519Z,1006.28
2018-12-14T04:59:31.352Z,1006.4
2018-12-14T05:00:12.022Z,1006.42
2018-12-14T05:00:52.722Z,1006.43
2018-12-14T05:01:33.436Z,1006.47
2018-12-14T05:02:14.209Z,1006.52
2018-12-14T05:02:54.992Z,1006.49
2018-12-14T05:03:35.825Z,1006.53
2018-12-14T05:04:16.549Z,1006.51
2018-12-14T05:04:57.271Z,1006.46
2018-12-14T05:05:38.108Z,1006.59
2018-12-14T05:06:18.888Z,1006.47
2018-12-14T05:06:59.603Z,1006.56
2018-12-14T05:07:40.351Z,1006.51
2018-12-14T05:08:21.079Z,1006.49
2018-12-14T05:09:01.944Z,1006.53
2018-12-14T05:09:42.683Z,1006.5
2018-12-14T05:10:23.379Z,1006.59
2018-12-14T05:11:04.101Z,1006.57
2018-12-14T05:11:44.940Z,1006.59
2018-12-14T05:12:25.746Z,1006.68
2018-12-14T05:13:06.487Z,1006.65
2018-12-14T05:13:47.239Z,1006.59
2018-12-14T05:14:28.054Z,1006.64
2018-12-14T05:15:08.902Z,1006.65
2018-12-14T05:15:49.665Z,1006.66
2018-12-14T05:16:30.405Z,1006.69
2018-12-14T05:17:11.185Z,1006.75
2018-12-14T05:17:52.066Z,1006.75
2018-12-14T05:18:32.838Z,1006.77
2018-12-14T05:19:13.648Z,1006.73
2018-12-14T05:19:54.385Z,1006.73
2018-12-14T05:20:35.069Z,1006.88
2018-12-14T05:21:15.782Z,1006.88
2018-12-14T05:21:56.548Z,1006.86
2018-12-14T05:22:37.316Z,1006.86
2018-12-14T05:23:18.050Z,1006.91
2018-12-14T05:23:58.828Z,1006.98
2018-12-14T05:24:39.623Z,1006.94
2018-12-14T05:25:20.367Z,1006.96
2018-12-14T05:26:01.137Z,1006.98
2018-12-14T05:26:41.839Z,1006.98
2018-12-14T05:27:22.631Z,1006.85
2018-12-14T05:28:03.425Z,1007.01
2018-12-14T05:28:44.183Z,1007
2018-12-14T05:29:24.919Z,1007.02
2018-12-14T05:30:05.648Z,1007.01
2018-12-14T05:30:46.455Z,1006.98
2018-12-14T05:31:27.206Z,1007.07
2018-12-14T05:32:07.908Z,1007.05
2018-12-14T05:32:48.689Z,1007.06
2018-12-14T05:33:29.518Z,1007.04
2018-12-14T05:34:10.324Z,1007.06
2018-12-14T05:34:51.115Z,1007.07
2018-12-14T05:35:31.862Z,1007.02
2018-12-14T05:36:12.584Z,1007.02
2018-12-14T05:36:53.441Z,1007.06
2018-12-14T05:37:34.239Z,1007.06
2018-12-14T05:38:15.042Z,1007.1
2018-12-14T05:38:55.792Z,1006.96
2018-12-14T05:39:36.525Z,1007.09
2018-12-14T05:40:17.281Z,1007.13
2018-12-14T05:40:58.087Z,1007.15
2018-12-14T05:41:38.792Z,1007.05
2018-12-14T05:42:19.474Z,1007.19
2018-12-14T05:43:02.622Z,1007.16
2018-12-14T05:43:40.963Z,1007.21
2018-12-14T05:44:21.802Z,1007.09
2018-12-14T05:45:02.600Z,1007.2
2018-12-14T05:45:43.405Z,1007.19
2018-12-14T05:46:24.142Z,1007.15
2018-12-14T05:47:04.862Z,1007.08
2018-12-14T05:47:45.592Z,1007.12
2018-12-14T05:48:26.456Z,1007.26
2018-12-14T05:49:07.129Z,1007.2
2018-12-14T05:49:47.902Z,1007.11
2018-12-14T05:50:28.695Z,1007.23
2018-12-14T05:51:09.474Z,1007.22
2018-12-14T05:51:50.286Z,1007.15
2018-12-14T05:52:31.046Z,1007.22
2018-12-14T05:53:11.815Z,1007.19
2018-12-14T05:53:52.535Z,1007.26
2018-12-14T05:54:33.343Z,1007.22
2018-12-14T05:55:14.126Z,1007.17
2018-12-14T05:55:54.928Z,1007.17
2018-12-14T05:56:35.661Z,1007.27
2018-12-14T05:57:16.394Z,1007.28
2018-12-14T05:57:57.159Z,1007.36
2018-12-14T05:58:37.965Z,1007.23
2018-12-14T05:59:18.686Z,1007.22
2018-12-14T05:59:59.417Z,1007.22
2018-12-14T06:00:40.147Z,1007.27
2018-12-14T06:01:20.942Z,1007.31
2018-12-14T06:02:01.706Z,1007.24
2018-12-14T06:02:42.460Z,1007.19
2018-12-14T06:03:23.220Z,1007.25
2018-12-14T06:04:04.035Z,1007.34
2018-12-14T06:04:44.853Z,1007.12
2018-12-14T06:05:25.545Z,1007.27
2018-12-14T06:06:06.315Z,1007.25
2018-12-14T06:06:47.130Z,1007.18
2018-12-14T06:07:27.857Z,1007.33
2018-12-14T06:08:08.588Z,1007.2
2018-12-14T06:08:49.339Z,1007.32
2018-12-14T06:09:30.109Z,1007.26
2018-12-14T06:10:10.930Z,1007.35
2018-12-14T06:10:51.768Z,1007.36
2018-12-14T06:11:32.590Z,1007.36
2018-12-14T06:12:13.310Z,1007.38
2018-12-14T06:12:54.044Z,1007.33
2018-12-14T06:13:34.755Z,1007.53
2018-12-14T06:14:15.556Z,1007.51
2018-12-14T06:14:56.338Z,1007.45
2018-12-14T06:15:37.053Z,1007.44
2018-12-14T06:16:17.889Z,1007.49
2018-12-14T06:16:58.677Z,1007.52
2018-12-14T06:17:39.490Z,1007.45
2018-12-14T06:18:20.216Z,1007.5
2018-12-14T06:19:00.952Z,1007.5
2018-12-14T06:19:41.684Z,1007.52
2018-12-14T06:20:22.559Z,1007.61
2018-12-14T06:21:03.317Z,1007.57
2018-12-14T06:21:44.113Z,1007.57
2018-12-14T06:22:24.873Z,1007.64
2018-12-14T06:23:05.595Z,1007.71
2018-12-14T06:23:46.362Z,1007.62
2018-12-14T06:24:27.177Z,1007.68
2018-12-14T06:25:07.887Z,1007.7
2018-12-14T06:25:48.682Z,1007.65
2018-12-14T06:26:29.407Z,1007.7
2018-12-14T06:27:10.203Z,1007.74
2018-12-14T06:27:51.026Z,1007.72
2018-12-14T06:28:31.745Z,1007.74
2018-12-14T06:29:12.488Z,1007.76
2018-12-14T06:29:53.214Z,1007.72
2018-12-14T06:30:33.900Z,1007.79
2018-12-14T06:31:14.688Z,1007.81
2018-12-14T06:31:55.446Z,1007.77
2018-12-14T06:32:36.140Z,1007.77
2018-12-14T06:33:16.880Z,1007.88
2018-12-14T06:33:57.659Z,1007.76
2018-12-14T06:34:38.500Z,1007.82
2018-12-14T06:35:19.323Z,1007.77
2018-12-14T06:36:00.042Z,1007.88
2018-12-14T06:36:40.810Z,1007.83
2018-12-14T06:37:21.582Z,1007.89
2018-12-14T06:38:02.307Z,1007.96
2018-12-14T06:38:43.064Z,1007.9
2018-12-14T06:39:23.772Z,1007.88
2018-12-14T06:40:04.642Z,1007.98
2018-12-14T06:40:45.370Z,1007.96
2018-12-14T06:41:26.089Z,1007.91
2018-12-14T06:42:06.881Z,1007.97
2018-12-14T06:42:47.667Z,1007.98
2018-12-14T06:43:28.545Z,1007.97
2018-12-14T06:44:09.313Z,1007.96
2018-12-14T06:44:50.039Z,1008.02
2018-12-14T06:45:30.727Z,1007.98
2018-12-14T06:46:11.520Z,1008.02
2018-12-14T06:46:52.324Z,1008.12
2018-12-14T06:47:33.159Z,1008.12
2018-12-14T06:48:13.958Z,1008.17
2018-12-14T06:48:54.654Z,1008.12
2018-12-14T06:49:35.464Z,1008.2
2018-12-14T06:50:16.241Z,1008.12
2018-12-14T06:50:56.966Z,1008.21
2018-12-14T06:51:37.680Z,1008.29
2018-12-14T06:52:18.414Z,1008.2
2018-12-14T06:53:00.593Z,1008.24
2018-12-14T06:53:39.922Z,1008.25
2018-12-14T06:54:20.738Z,1008.25
2018-12-14T06:55:01.520Z,1008.29
2018-12-14T06:55:42.295Z,1008.29
2018-12-14T06:56:23.001Z,1008.33
2018-12-14T06:57:03.750Z,1008.33
2018-12-14T06:57:44.555Z,1008.37
2018-12-14T06:58:25.285Z,1008.41
2018-12-14T06:59:06.040Z,1008.48
2018-12-14T06:59:46.876Z,1008.44
2018-12-14T07:00:27.710Z,1008.44
2018-12-14T07:01:08.551Z,1008.56
2018-12-14T07:01:49.279Z,1008.54
2018-12-14T07:02:30.026Z,1008.55
2018-12-14T07:03:10.738Z,1008.59
2018-12-14T07:03:51.520Z,1008.67
2018-12-14T07:04:32.287Z,1008.69
2018-12-14T07:05:13.083Z,1008.7
2018-12-14T07:05:53.853Z,1008.76
2018-12-14T07:06:34.600Z,1008.79
2018-12-14T07:07:15.400Z,1008.79
2018-12-14T07:07:56.155Z,1008.81
2018-12-14T07:08:36.894Z,1008.84
2018-12-14T07:09:17.614Z,1008.82
2018-12-14T07:09:58.355Z,1008.81
2018-12-14T07:10:39.189Z,1008.8
2018-12-14T07:11:19.934Z,1008.84
2018-12-14T07:12:00.675Z,1008.83
2018-12-14T07:12:41.467Z,1008.94
2018-12-14T07:13:22.282Z,1009.03
2018-12-14T07:14:03.669Z,1009
2018-12-14T07:14:43.785Z,1009.06
2018-12-14T07:15:24.492Z,1009.1
2018-12-14T07:16:05.332Z,1009.09
2018-12-14T07:16:46.109Z,1009.12
2018-12-14T07:17:26.829Z,1009.15
2018-12-14T07:18:07.572Z,1009.2
2018-12-14T07:18:48.317Z,1009.14
2018-12-14T07:19:29.106Z,1009.18
2018-12-14T07:20:09.885Z,1009.21
2018-12-14T07:20:50.666Z,1009.26
2018-12-14T07:21:31.393Z,1009.28
2018-12-14T07:22:12.138Z,1009.32
2018-12-14T07:22:52.889Z,1009.36
2018-12-14T07:23:33.760Z,1009.33
2018-12-14T07:24:14.478Z,1009.38
2018-12-14T07:24:55.239Z,1009.37
2018-12-14T07:25:36.075Z,1009.42
2018-12-14T07:26:16.834Z,1009.42
2018-12-14T07:26:57.677Z,1009.49
2018-12-14T07:27:38.427Z,1009.49
2018-12-14T07:28:19.180Z,1009.52
2018-12-14T07:29:00.019Z,1009.56
2018-12-14T07:29:40.804Z,1009.53
2018-12-14T07:30:21.492Z,1009.57
2018-12-14T07:31:02.253Z,1009.53
2018-12-14T07:31:42.963Z,1009.55
2018-12-14T07:32:23.794Z,1009.61
2018-12-14T07:33:04.594Z,1009.6
2018-12-14T07:33:45.299Z,1009.67
2018-12-14T07:34:26.093Z,1009.64
2018-12-14T07:35:06.884Z,1009.62
2018-12-14T07:35:47.692Z,1009.61
2018-12-14T07:36:28.439Z,1009.65
2018-12-14T07:37:09.138Z,1009.71
2018-12-14T07:37:49.851Z,1009.7
2018-12-14T07:38:30.605Z,1009.72
2018-12-14T07:39:11.418Z,1009.71
2018-12-14T07:39:52.232Z,1009.71
2018-12-14T07:40:32.958Z,1009.73
2018-12-14T07:41:13.679Z,1009.75
2018-12-14T07:41:54.448Z,1009.79
2018-12-14T07:42:35.240Z,1009.78
2018-12-14T07:43:16.001Z,1009.8
2018-12-14T07:43:56.745Z,1009.78
2018-12-14T07:44:37.646Z,1009.85
2018-12-14T07:45:18.322Z,1009.84
2018-12-14T07:45:59.083Z,1009.89
2018-12-14T07:46:39.840Z,1009.89
2018-12-14T07:47:20.637Z,1009.96
2018-12-14T07:48:01.414Z,1009.98
2018-12-14T07:48:42.201Z,1010.03
2018-12-14T07:49:22.908Z,1010.01
2018-12-14T07:50:03.611Z,1010.03
2018-12-14T07:50:44.420Z,1010.07
2018-12-14T07:51:25.204Z,1010.12
2018-12-14T07:52:05.919Z,1010.17
2018-12-14T07:52:46.626Z,1010.21
2018-12-14T07:53:27.329Z,1010.23
2018-12-14T07:54:08.149Z,1010.22
2018-12-14T07:54:48.903Z,1010.24
2018-12-14T07:55:29.702Z,1010.27
2018-12-14T07:56:10.416Z,1010.32
2018-12-14T07:56:51.109Z,1010.37
2018-12-14T07:57:31.864Z,1010.38
2018-12-14T07:58:12.622Z,1010.42
2018-12-14T07:58:53.411Z,1010.41
2018-12-14T07:59:34.155Z,1010.44
2018-12-14T08:00:14.891Z,1010.46
2018-12-14T08:00:55.762Z,1010.48
2018-12-14T08:01:36.611Z,1010.49
2018-12-14T08:02:17.349Z,1010.48
2018-12-14T08:02:58.096Z,1010.55
2018-12-14T08:03:38.805Z,1010.52
2018-12-14T08:04:19.552Z,1010.55
2018-12-14T08:05:00.366Z,1010.58
2018-12-14T08:05:41.146Z,1010.55
2018-12-14T08:06:21.985Z,1010.61
2018-12-14T08:07:02.708Z,1010.65
2018-12-14T08:07:43.496Z,1010.61
2018-12-14T08:08:24.326Z,1010.66
2018-12-14T08:09:05.083Z,1010.7
2018-12-14T08:09:45.772Z,1010.69
2018-12-14T08:10:26.479Z,1010.74
2018-12-14T08:11:07.231Z,1010.75
2018-12-14T08:11:48.033Z,1010.81
2018-12-14T08:12:28.868Z,1010.84
2018-12-14T08:13:09.630Z,1010.83
2018-12-14T08:13:50.387Z,1010.87
2018-12-14T08:14:31.120Z,1010.9
2018-12-14T08:15:11.833Z,1010.91
2018-12-14T08:15:52.618Z,1010.93
2018-12-14T08:16:33.396Z,1010.93